Accueil
METAR-TAF:

METAR-TAF

Aéroports :

Aéroport de Ghardaïa - Noumérat - Moufdi Zakaria

Ghardaïa, Algérie

latitude: 32-23N, longitude: 003-49E, altitude: 450 m

Observation

Le bulletin a été fait il y a 40 minutes, à 10:00 UTC
Vent 2 kt de direction variable
Température 19°C
Humidité 21%
Pression 1021 hPa
Visibilité 10 km ou plus
pas de nuages en-dessous de 1500 mètres et pas de cumulonimbus.

METAR: DAUG 181000Z VRB02KT CAVOK 19/M04 Q1021

Heure: 11:40 (10:40 UTC)

Prévision

Le bulletin a été fait il y a 5 heures et 40 minutes, à 05:00 UTC
Prévision valable du 18 à 06 UTC au 19 à 06 UTC
Vent 8 kt de nord
Visibilité 10 km ou plus
Quelques nuages à une hauteur de 4000 ft
Evoluant progressivement
du 18 à 12 UTC au 18 à 15 UTC
Vent 12 kt de ouest
Evoluant progressivement
du 18 à 21 UTC au 18 à 24 UTC
Vent 14 kt de nord-est

TAF: DAUG 180500Z 1806/1906 35008KT 9999 FEW040 BECMG 1812/1815 26012KT BECMG 1821/1824 04014KT

Observations et prévisions météorologiques de plus de 4000 aéroports (messages METAR et TAF).

Les stations disponibles sont représentées par des disques jaunes et rouges sur la carte.

Passer la souris dessus pour voir le nom de la station.

Cliquer dessus pour voir les observations et prévisions météorologiques.

Pour changer de carte: cliquez sur les boutons verts avec une croix noire pour zoomer, sur le bouton vert avec un tiret pour effectuer un zoom arrière, ou sur les flèches vertes pour les cartes adjacentes.


METAR-TAF: